Uniontown, Missouri
Current Conditions -  °F | °C
As of 1:53 PM on Friday 24 Oct 2014 (Local Time) from KCGI Reporting Station
Few Clouds Few Clouds  
Wind Chill: 68°   Ceiling: Unl
Heat Index: 68°   Visibility: 9mi
Dew Point: 55°   Wind: 0mph
Humidity: 63%   Direction: NA
Pressure: 30.08"   Gusts: NA
Location:  37.61°N, 89.71°W
Report Text: KCGI 241853Z 00000KT 9SM FEW032 20/13 A3008 RMK AO2 SLP186 T02000128
Loading
Personal Weather Stations






























Interactive Weather Map
Tropical Storm Tracking
New forecast layout! Learn more

10-Day Weather Forecast

Advertisements
Track Severe Weather on mobile